Time;durP1;ratioP1;P1;durP2;ratioP2;P2;SDS_P1;SDS_P2;PMS_P1;PMS_P2;Temp;Humidity;BMP_temperature;BMP_pressure;BME280_temperature;BME280_humidity;BME280_pressure;Samples;Min_cycle;Max_cycle;Signal;HPM_P1;HPM_P2
2022/02/15 00:00:40;;;;;;;5.47;1.05;;;6.80;1.00;;;;;;5048222;28;20049;-74
2022/02/15 00:03:08;;;;;;;4.82;1.08;;;6.90;1.00;;;;;;5034506;28;20037;-74
2022/02/15 00:05:34;;;;;;;3.03;0.95;;;6.80;1.00;;;;;;5034250;28;20116;-74
2022/02/15 00:08:01;;;;;;;8.20;1.80;;;6.80;1.00;;;;;;5034323;28;20057;-74
2022/02/15 00:10:27;;;;;;;5.60;0.93;;;6.60;1.00;;;;;;5041423;28;20118;-74
2022/02/15 00:12:53;;;;;;;7.60;0.98;;;6.40;1.00;;;;;;5057371;28;20057;-74
2022/02/15 00:15:19;;;;;;;4.22;0.80;;;6.40;1.00;;;;;;5057856;28;20078;-74
2022/02/15 00:17:45;;;;;;;5.35;1.30;;;6.50;1.00;;;;;;5058218;28;20041;-74
2022/02/15 00:20:11;;;;;;;5.22;1.05;;;6.50;1.00;;;;;;5056197;28;20048;-74
2022/02/15 00:22:38;;;;;;;5.80;1.35;;;6.60;1.00;;;;;;5037833;28;20106;-74
2022/02/15 00:25:05;;;;;;;7.05;1.00;;;6.60;1.00;;;;;;5037786;28;20044;-74
2022/02/15 00:27:31;;;;;;;7.72;1.20;;;6.40;1.00;;;;;;5037852;28;20059;-74
2022/02/15 00:29:57;;;;;;;5.85;1.10;;;6.40;1.00;;;;;;5037436;28;20041;-74
2022/02/15 00:32:23;;;;;;;3.50;0.90;;;6.30;1.00;;;;;;5051404;28;20514;-74
2022/02/15 00:34:49;;;;;;;5.30;1.20;;;6.30;1.00;;;;;;5037333;28;20037;-74
2022/02/15 00:37:14;;;;;;;3.53;0.85;;;6.40;1.00;;;;;;5037315;28;20045;-74
2022/02/15 00:39:40;;;;;;;3.97;0.80;;;6.50;1.00;;;;;;5037546;28;20073;-74
2022/02/15 00:42:06;;;;;;;3.83;1.02;;;6.60;1.00;;;;;;5053199;28;20161;-74
2022/02/15 00:44:33;;;;;;;3.35;0.82;;;6.50;1.00;;;;;;5057106;28;20120;-74
2022/02/15 00:47:00;;;;;;;3.95;0.63;;;6.50;1.00;;;;;;5057266;28;20033;-74
2022/02/15 00:49:26;;;;;;;3.47;0.82;;;6.50;1.00;;;;;;5057278;28;20040;-74
2022/02/15 00:51:52;;;;;;;3.42;0.75;;;6.50;1.00;;;;;;5042009;28;20535;-74
2022/02/15 00:54:18;;;;;;;5.10;0.80;;;6.40;1.00;;;;;;5037308;28;20048;-74
2022/02/15 00:56:44;;;;;;;3.92;0.70;;;6.40;1.00;;;;;;5036820;28;20046;-74
2022/02/15 00:59:10;;;;;;;3.70;0.90;;;6.40;1.00;;;;;;5036926;28;20042;-74
2022/02/15 01:01:37;;;;;;;5.68;1.10;;;6.20;1.00;;;;;;5048691;28;20049;-74
2022/02/15 01:04:03;;;;;;;5.75;1.20;;;6.20;1.00;;;;;;5057068;28;20129;-74
2022/02/15 01:06:29;;;;;;;4.43;1.17;;;6.20;1.00;;;;;;5056704;28;20041;-74
2022/02/15 01:08:55;;;;;;;3.03;0.75;;;6.20;1.00;;;;;;5056954;28;20037;-74
2022/02/15 01:11:21;;;;;;;5.07;0.90;;;6.40;1.00;;;;;;5046415;28;20045;-74
2022/02/15 01:13:47;;;;;;;3.78;1.05;;;6.50;1.00;;;;;;5036703;28;20054;-74
2022/02/15 01:16:13;;;;;;;10.90;1.30;;;6.60;1.00;;;;;;5036545;28;20041;-74
2022/02/15 01:18:39;;;;;;;6.88;0.95;;;6.70;1.00;;;;;;5036090;28;20396;-74
2022/02/15 01:21:05;;;;;;;4.57;1.10;;;6.60;1.00;;;;;;5036132;28;20503;-74
2022/02/15 01:23:31;;;;;;;7.00;1.00;;;6.70;1.00;;;;;;5036680;28;20091;-74
2022/02/15 01:25:57;;;;;;;3.75;1.05;;;6.80;1.00;;;;;;5036939;28;20037;-74
2022/02/15 01:28:23;;;;;;;4.97;1.20;;;6.80;1.00;;;;;;5036195;28;20175;-74
2022/02/15 01:30:49;;;;;;;6.57;0.80;;;6.50;1.00;;;;;;5040380;28;20040;-74
2022/02/15 01:33:15;;;;;;;6.32;1.30;;;6.50;1.00;;;;;;5055763;28;20171;-74
2022/02/15 01:35:41;;;;;;;10.73;1.38;;;6.40;1.00;;;;;;5055865;28;20044;-74
2022/02/15 01:38:08;;;;;;;7.38;1.38;;;6.30;99.90;;;;;;5043787;28;20463;-74
2022/02/15 01:40:34;;;;;;;4.75;1.27;;;6.10;23.30;;;;;;5036509;28;20049;-74
2022/02/15 01:43:00;;;;;;;3.22;0.80;;;5.90;99.90;;;;;;5035591;28;20069;-74
2022/02/15 01:45:27;;;;;;;5.00;1.13;;;5.90;99.90;;;;;;5036014;28;20059;-74
2022/02/15 01:47:53;;;;;;;6.05;1.23;;;5.80;1.00;;;;;;5036099;28;20124;-74
2022/02/15 01:50:19;;;;;;;4.68;1.00;;;5.80;99.90;;;;;;5036198;28;20069;-74
2022/02/15 01:52:45;;;;;;;2.72;0.60;;;5.90;99.90;;;;;;5036321;28;20195;-74
2022/02/15 01:55:13;;;;;;;1.45;0.50;;;5.80;99.90;;;;;;5018056;28;20036;-74
2022/02/15 01:57:39;;;;;;;2.65;0.40;;;6.00;99.90;;;;;;5042029;28;20079;-74
2022/02/15 02:00:12;;;;;;;0.60;0.45;;;5.90;99.90;;;;;;5055852;28;20044;-74
2022/02/15 02:02:38;;;;;;;1.10;0.32;;;5.80;99.90;;;;;;5055779;28;20037;-74
2022/02/15 02:07:48;;;;;;;1.10;0.30;;;5.60;99.90;;;;;;5047853;28;20491;-74
2022/02/15 02:10:15;;;;;;;0.30;0.20;;;5.70;99.90;;;;;;5046365;28;20064;-74
2022/02/15 02:12:41;;;;;;;0.25;0.10;;;5.70;74.70;;;;;;5054786;28;20067;-74
2022/02/15 02:15:16;;;;;;;0.38;0.20;;;5.80;98.40;;;;;;5055725;28;20175;-74
2022/02/15 02:17:42;;;;;;;1.48;0.20;;;5.80;99.90;;;;;;5048357;28;20121;-74
2022/02/15 02:20:08;;;;;;;0.43;0.30;;;5.80;99.90;;;;;;5035870;28;20175;-74
2022/02/15 02:22:34;;;;;;;0.43;0.20;;;5.70;99.90;;;;;;5034969;28;20430;-74
2022/02/15 02:25:00;;;;;;;0.47;0.20;;;5.60;99.90;;;;;;5034989;28;20132;-74
2022/02/15 02:27:29;;;;;;;0.30;0.10;;;5.60;99.90;;;;;;5035000;28;20037;-73
2022/02/15 02:29:55;;;;;;;0.10;0.10;;;5.50;99.90;;;;;;5046385;28;20527;-74
2022/02/15 02:32:23;;;;;;;1.13;0.20;;;5.50;99.90;;;;;;5054656;28;20032;-74
2022/02/15 02:34:49;;;;;;;1.02;0.30;;;5.60;99.90;;;;;;5053090;28;20119;-73
2022/02/15 02:37:15;;;;;;;1.15;0.30;;;5.30;99.90;;;;;;5054917;28;20083;-74
2022/02/15 02:39:46;;;;;;;0.13;0.10;;;5.30;99.90;;;;;;5045366;28;20524;-74
2022/02/15 02:42:14;;;;;;;1.15;0.38;;;5.60;58.10;;;;;;5034789;28;20053;-74
2022/02/15 02:44:40;;;;;;;1.45;0.30;;;5.60;89.70;;;;;;5034934;28;20041;-74
2022/02/15 02:47:07;;;;;;;2.60;0.32;;;5.70;93.20;;;;;;5035122;28;20060;-74
2022/02/15 02:49:34;;;;;;;2.78;0.50;;;5.60;99.90;;;;;;5035934;28;20045;-74
2022/02/15 02:52:00;;;;;;;2.55;0.60;;;5.70;1.00;;;;;;5034629;28;20047;-74
2022/02/15 02:54:26;;;;;;;3.05;0.50;;;5.90;99.90;;;;;;5034476;28;20029;-74
2022/02/15 02:56:53;;;;;;;2.22;0.68;;;5.90;1.00;;;;;;5034583;28;20037;-74
2022/02/15 02:59:19;;;;;;;4.03;0.82;;;6.10;1.00;;;;;;5040231;28;20128;-74
2022/02/15 03:01:46;;;;;;;3.85;0.60;;;6.00;1.00;;;;;;5054812;28;20049;-74
2022/02/15 03:04:12;;;;;;;1.23;0.70;;;6.10;99.90;;;;;;5054693;28;20028;-74
2022/02/15 03:06:38;;;;;;;3.47;0.65;;;6.10;1.00;;;;;;5054572;28;20059;-74
2022/02/15 03:09:05;;;;;;;2.30;0.70;;;6.10;99.90;;;;;;5051750;28;20037;-74
2022/02/15 03:11:32;;;;;;;1.63;0.80;;;6.20;1.00;;;;;;5034666;28;20041;-74
2022/02/15 03:14:01;;;;;;;1.38;0.60;;;6.00;99.90;;;;;;5034722;28;20064;-74
2022/02/15 03:16:27;;;;;;;1.17;0.50;;;6.00;82.50;;;;;;5034785;28;20037;-74
2022/02/15 03:18:54;;;;;;;1.55;0.30;;;6.10;1.00;;;;;;5036564;28;20044;-74
2022/02/15 03:21:20;;;;;;;0.52;0.30;;;6.10;1.00;;;;;;5054609;28;20052;-74
2022/02/15 03:23:46;;;;;;;1.48;0.40;;;6.00;48.00;;;;;;5055243;28;20040;-74
2022/02/15 03:26:12;;;;;;;2.40;0.55;;;6.00;1.00;;;;;;5055221;28;20037;-74
2022/02/15 03:28:38;;;;;;;2.60;0.40;;;6.00;1.00;;;;;;5054353;28;20037;-74
2022/02/15 03:31:05;;;;;;;3.13;0.50;;;5.90;1.00;;;;;;5034900;28;20033;-74
2022/02/15 03:33:31;;;;;;;4.28;0.73;;;5.90;99.90;;;;;;5034887;28;20128;-74
2022/02/15 03:35:57;;;;;;;2.42;0.50;;;5.90;99.90;;;;;;5034647;28;20029;-74
2022/02/15 03:38:23;;;;;;;2.20;0.60;;;6.00;26.50;;;;;;5034627;28;20045;-74
2022/02/15 03:43:35;;;;;;;2.40;0.60;;;6.00;99.90;;;;;;5056672;28;20569;-74
2022/02/15 03:46:00;;;;;;;1.52;0.52;;;6.00;99.90;;;;;;5058208;28;20041;-74
2022/02/15 03:48:26;;;;;;;3.20;0.68;;;6.00;1.00;;;;;;5057951;28;20091;-74
2022/02/15 03:50:52;;;;;;;6.80;0.88;;;6.00;97.50;;;;;;5039918;28;20049;-74
2022/02/15 03:53:18;;;;;;;2.88;0.60;;;5.90;99.90;;;;;;5037813;28;20072;-74
2022/02/15 03:55:45;;;;;;;2.08;0.40;;;5.80;10.70;;;;;;5037844;28;20052;-74
2022/02/15 03:58:11;;;;;;;3.42;0.45;;;5.70;1.00;;;;;;5037951;28;20072;-74
2022/02/15 04:00:38;;;;;;;3.10;0.68;;;5.50;99.90;;;;;;5052616;28;20041;-74
2022/02/15 04:03:05;;;;;;;2.35;0.70;;;5.40;99.90;;;;;;5058445;28;20109;-74
2022/02/15 04:05:31;;;;;;;3.55;0.95;;;5.40;99.90;;;;;;5057754;28;20472;-74
2022/02/15 04:07:57;;;;;;;3.17;0.70;;;5.50;99.90;;;;;;5057867;28;20036;-74
2022/02/15 04:10:22;;;;;;;1.95;0.50;;;5.70;99.90;;;;;;5055840;28;20052;-74
2022/02/15 04:12:49;;;;;;;3.65;0.75;;;5.80;99.90;;;;;;5057116;28;20090;-74
2022/02/15 04:15:16;;;;;;;3.25;0.70;;;5.70;99.90;;;;;;5057321;28;20120;-74
2022/02/15 04:17:42;;;;;;;2.13;0.60;;;5.70;99.90;;;;;;5057999;28;20040;-74
2022/02/15 04:20:09;;;;;;;2.65;0.60;;;5.90;99.90;;;;;;5055603;28;20037;-74
2022/02/15 04:22:34;;;;;;;3.33;0.80;;;6.00;99.90;;;;;;5057035;28;20098;-74
2022/02/15 04:25:01;;;;;;;3.88;0.98;;;6.00;99.90;;;;;;5057981;28;20430;-74
2022/02/15 04:27:30;;;;;;;5.55;1.25;;;5.60;99.90;;;;;;5057193;28;20041;-74
2022/02/15 04:29:57;;;;;;;3.40;0.77;;;5.80;99.90;;;;;;5047789;28;20519;-74
2022/02/15 04:32:22;;;;;;;5.97;0.90;;;5.90;99.90;;;;;;5037177;28;20428;-74
2022/02/15 04:34:48;;;;;;;4.47;0.85;;;5.90;99.90;;;;;;5037073;28;20077;-74
2022/02/15 04:37:14;;;;;;;4.45;0.80;;;5.90;99.90;;;;;;5037296;28;20089;-74
2022/02/15 04:39:41;;;;;;;4.32;0.90;;;6.10;99.90;;;;;;5043732;28;20036;-74
2022/02/15 04:42:07;;;;;;;6.55;1.40;;;6.00;99.90;;;;;;5057152;28;20044;-74
2022/02/15 04:44:33;;;;;;;4.07;0.82;;;5.70;99.90;;;;;;5057227;28;20484;-74
2022/02/15 04:46:59;;;;;;;5.03;1.20;;;5.70;99.90;;;;;;5048141;28;20075;-74
2022/02/15 04:49:25;;;;;;;5.88;0.80;;;5.80;99.90;;;;;;5036792;28;20045;-74
2022/02/15 04:51:51;;;;;;;5.10;1.42;;;5.90;99.90;;;;;;5037347;28;20041;-74
2022/02/15 04:54:19;;;;;;;5.55;0.70;;;5.90;99.90;;;;;;5036324;28;20373;-74
2022/02/15 04:56:45;;;;;;;2.47;0.77;;;5.90;99.90;;;;;;5042107;28;20140;-74
2022/02/15 04:59:11;;;;;;;3.65;1.15;;;5.70;99.90;;;;;;5056615;28;20116;-74
2022/02/15 05:01:38;;;;;;;4.07;0.90;;;5.70;99.90;;;;;;5056467;28;20190;-74
2022/02/15 05:04:04;;;;;;;1.85;0.52;;;5.70;99.90;;;;;;5056631;28;20044;-74
2022/02/15 05:06:30;;;;;;;1.70;0.57;;;5.70;99.90;;;;;;5056428;28;20041;-74
2022/02/15 05:08:56;;;;;;;2.13;0.65;;;5.50;99.90;;;;;;5056689;28;20128;-74
2022/02/15 05:11:22;;;;;;;4.30;0.75;;;5.50;99.90;;;;;;5055348;28;20045;-73
2022/02/15 05:13:48;;;;;;;3.50;0.70;;;5.60;99.90;;;;;;5047024;28;20053;-74
2022/02/15 05:16:14;;;;;;;5.05;0.68;;;5.70;99.90;;;;;;5055189;28;20029;-74
2022/02/15 05:18:40;;;;;;;3.67;1.33;;;5.70;99.90;;;;;;5052311;28;20376;-74
2022/02/15 05:21:05;;;;;;;3.28;0.85;;;5.90;99.90;;;;;;5056291;28;20083;-74
2022/02/15 05:23:32;;;;;;;7.05;1.38;;;5.80;99.90;;;;;;5043755;28;20389;-74
2022/02/15 05:25:58;;;;;;;4.28;1.20;;;5.80;99.90;;;;;;5050685;28;20057;-73
2022/02/15 05:28:25;;;;;;;2.00;0.88;;;5.70;99.90;;;;;;5047971;28;20504;-74
2022/02/15 05:30:51;;;;;;;3.88;1.42;;;5.90;99.90;;;;;;5054616;28;20092;-74
2022/02/15 05:33:17;;;;;;;4.00;0.88;;;6.00;99.90;;;;;;5056167;28;20120;-74
2022/02/15 05:35:43;;;;;;;5.30;1.17;;;5.90;99.90;;;;;;5055859;28;20037;-75
2022/02/15 05:38:09;;;;;;;2.28;1.00;;;5.70;99.90;;;;;;5053262;28;20499;-72
2022/02/15 05:40:34;;;;;;;6.43;1.30;;;5.70;99.90;;;;;;5054371;28;20094;-74
2022/02/15 05:43:00;;;;;;;7.70;1.63;;;5.50;99.90;;;;;;5056238;28;20409;-74
2022/02/15 05:45:27;;;;;;;5.15;1.58;;;5.60;99.90;;;;;;5056268;28;20120;-74
2022/02/15 05:47:53;;;;;;;8.63;1.40;;;5.60;99.90;;;;;;5055658;28;20040;-73
2022/02/15 05:53:03;;;;;;;9.05;1.67;;;5.40;99.90;;;;;;5046970;28;20037;-73
2022/02/15 05:55:29;;;;;;;4.72;1.50;;;5.60;99.90;;;;;;5035803;28;20030;-73
2022/02/15 05:57:56;;;;;;;7.68;1.52;;;5.70;99.90;;;;;;5035315;28;20053;-73
2022/02/15 06:00:22;;;;;;;5.93;1.33;;;5.70;99.90;;;;;;5035422;28;20099;-73
2022/02/15 06:02:48;;;;;;;7.97;1.48;;;5.80;99.90;;;;;;5035700;28;20048;-73
2022/02/15 06:05:14;;;;;;;5.82;1.50;;;5.80;99.90;;;;;;5035497;28;20380;-74
2022/02/15 06:07:40;;;;;;;4.70;1.10;;;5.80;90.90;;;;;;5035078;28;20040;-73
2022/02/15 06:10:06;;;;;;;8.23;1.60;;;5.80;99.90;;;;;;5035423;28;20041;-73
2022/02/15 06:12:32;;;;;;;4.18;1.10;;;5.80;98.60;;;;;;5054619;28;20495;-73
2022/02/15 06:14:58;;;;;;;4.20;1.30;;;5.80;55.70;;;;;;5055751;28;20082;-74
2022/02/15 06:17:24;;;;;;;3.50;0.98;;;5.70;97.20;;;;;;5053366;28;20051;-73
2022/02/15 06:19:50;;;;;;;8.18;1.42;;;5.70;99.90;;;;;;5055609;28;20060;-73
2022/02/15 06:22:15;;;;;;;5.70;1.30;;;5.80;72.60;;;;;;5056017;28;20475;-73
2022/02/15 06:24:41;;;;;;;7.30;1.27;;;5.70;42.80;;;;;;5055485;28;20060;-73
2022/02/15 06:27:07;;;;;;;7.35;1.40;;;5.80;48.40;;;;;;5039828;28;20539;-73
2022/02/15 06:29:34;;;;;;;7.63;1.52;;;5.70;99.90;;;;;;5035508;28;20041;-73
2022/02/15 06:32:00;;;;;;;4.68;1.00;;;5.70;99.90;;;;;;5035151;28;20424;-73
2022/02/15 06:34:26;;;;;;;5.40;1.70;;;5.50;99.90;;;;;;5035410;28;20037;-73
2022/02/15 06:36:53;;;;;;;6.75;1.50;;;5.50;99.90;;;;;;5046388;28;20045;-73
2022/02/15 06:39:19;;;;;;;3.53;1.10;;;5.50;93.10;;;;;;5054385;28;20033;-73
2022/02/15 06:41:45;;;;;;;6.15;1.42;;;5.60;96.30;;;;;;5054713;28;20049;-73
2022/02/15 06:44:10;;;;;;;3.65;1.35;;;5.80;57.70;;;;;;5053417;28;20108;-74
2022/02/15 06:46:37;;;;;;;4.43;1.17;;;5.70;91.10;;;;;;5055171;28;20126;-73
2022/02/15 06:49:04;;;;;;;8.43;1.58;;;5.60;93.90;;;;;;5055153;28;20033;-74
2022/02/15 06:51:30;;;;;;;6.40;1.40;;;5.70;72.00;;;;;;5054755;28;20044;-73
2022/02/15 06:53:56;;;;;;;4.70;1.10;;;5.80;60.00;;;;;;5047342;28;20037;-74
2022/02/15 06:56:22;;;;;;;6.22;1.67;;;5.70;91.60;;;;;;5034815;28;20119;-73
2022/02/15 06:58:48;;;;;;;4.63;1.33;;;5.70;91.00;;;;;;5034612;28;20033;-73
2022/02/15 07:01:14;;;;;;;10.10;1.90;;;5.70;74.60;;;;;;5034951;28;20049;-73
2022/02/15 07:03:40;;;;;;;7.70;1.95;;;5.80;78.40;;;;;;5036450;28;20041;-73
2022/02/15 07:06:06;;;;;;;8.10;1.25;;;5.70;87.50;;;;;;5035023;28;20454;-73
2022/02/15 07:08:32;;;;;;;7.43;1.50;;;5.70;84.90;;;;;;5035032;28;20553;-73
2022/02/15 07:10:58;;;;;;;10.32;2.05;;;5.80;53.40;;;;;;5034861;28;20045;-73
2022/02/15 07:13:27;;;;;;;3.47;1.13;;;5.90;36.30;;;;;;5036597;28;20045;-73
2022/02/15 07:15:53;;;;;;;9.32;1.60;;;5.80;39.20;;;;;;5054179;28;20094;-73
2022/02/15 07:18:20;;;;;;;7.90;1.67;;;5.90;28.00;;;;;;5053864;28;20037;-72
2022/02/15 07:20:45;;;;;;;6.63;2.00;;;6.00;7.40;;;;;;5053736;28;20049;-73
2022/02/15 07:23:13;;;;;;;6.78;1.30;;;5.90;9.10;;;;;;5053297;28;20089;-73
2022/02/15 07:25:40;;;;;;;4.03;0.95;;;6.00;66.20;;;;;;5034023;28;20029;-73
2022/02/15 07:28:05;;;;;;;5.53;1.38;;;6.00;97.90;;;;;;5034151;28;20048;-73
2022/02/15 07:30:32;;;;;;;3.38;1.05;;;5.90;99.90;;;;;;5037415;28;20407;-73
2022/02/15 07:32:59;;;;;;;3.92;1.10;;;5.70;99.90;;;;;;5052462;28;20040;-73
2022/02/15 07:35:25;;;;;;;7.18;1.30;;;5.70;99.90;;;;;;5046563;28;20029;-73
2022/02/15 07:37:51;;;;;;;6.38;1.40;;;5.70;99.90;;;;;;5034257;28;20045;-73
2022/02/15 07:40:21;;;;;;;4.72;1.20;;;5.90;64.00;;;;;;5034115;28;20038;-73
2022/02/15 07:42:51;;;;;;;5.65;1.45;;;6.00;46.30;;;;;;5034109;28;20048;-73
2022/02/15 07:45:18;;;;;;;3.88;1.48;;;6.00;91.80;;;;;;5033719;28;20029;-73
2022/02/15 07:47:49;;;;;;;8.32;2.10;;;6.00;42.80;;;;;;5042537;28;20037;-73
2022/02/15 07:50:16;;;;;;;;;;;5.90;48.50;;;;;;5055144;28;20036;-73
2022/02/15 07:52:44;;;;;;;6.80;1.85;;;5.90;71.90;;;;;;5053272;28;19909;-73
2022/02/15 07:55:11;;;;;;;9.30;2.30;;;5.90;18.50;;;;;;5053783;28;20120;-73
2022/02/15 07:57:37;;;;;;;11.90;2.33;;;6.00;16.10;;;;;;5050425;28;20119;-72
2022/02/15 08:00:05;;;;;;;9.20;2.78;;;5.90;11.40;;;;;;5033973;28;20496;-73
2022/02/15 08:02:31;;;;;;;9.50;3.58;;;5.90;17.50;;;;;;5033765;28;20103;-73
2022/02/15 08:04:57;;;;;;;12.57;3.30;;;5.90;38.20;;;;;;5033757;28;20037;-73
2022/02/15 08:07:22;;;;;;;8.80;2.05;;;5.90;15.30;;;;;;5034869;28;20045;-73
2022/02/15 08:09:48;;;;;;;7.35;2.50;;;6.00;17.20;;;;;;5033870;28;20041;-73
2022/02/15 08:12:17;;;;;;;8.57;2.85;;;5.90;21.50;;;;;;5033251;28;20041;-73
2022/02/15 08:14:44;;;;;;;6.10;1.83;;;6.00;25.70;;;;;;5033591;28;20130;-72
2022/02/15 08:17:10;;;;;;;7.30;1.63;;;6.00;1.00;;;;;;5049235;28;20069;-74
2022/02/15 08:19:36;;;;;;;4.90;1.50;;;6.00;22.40;;;;;;5029245;28;20073;-73
2022/02/15 08:22:02;;;;;;;6.38;1.75;;;6.00;1.00;;;;;;5051498;28;20074;-73
2022/02/15 08:24:29;;;;;;;9.75;1.75;;;6.10;16.50;;;;;;5052446;28;20067;-73
2022/02/15 08:26:56;;;;;;;7.47;1.73;;;6.10;28.40;;;;;;5038952;28;20041;-73
2022/02/15 08:29:22;;;;;;;16.10;2.35;;;6.20;1.00;;;;;;5033792;28;20041;-74
2022/02/15 08:31:49;;;;;;;8.48;1.88;;;6.20;14.80;;;;;;5036930;28;20055;-71
2022/02/15 08:34:15;;;;;;;6.07;2.33;;;6.20;7.80;;;;;;5036047;28;20041;-72
2022/02/15 08:36:41;;;;;;;7.68;2.35;;;6.30;1.00;;;;;;5047850;28;20399;-71
2022/02/15 08:39:07;;;;;;;7.18;1.88;;;6.50;1.00;;;;;;5052694;28;20025;-71
2022/02/15 08:41:33;;;;;;;5.88;1.80;;;6.40;1.00;;;;;;5056250;28;20137;-71
2022/02/15 08:43:59;;;;;;;8.52;1.95;;;6.30;1.60;;;;;;5056661;28;20507;-71
2022/02/15 08:46:25;;;;;;;7.35;1.60;;;6.30;1.00;;;;;;5056497;28;20088;-71
2022/02/15 08:48:51;;;;;;;5.43;1.63;;;6.30;5.40;;;;;;5055974;28;20498;-71
2022/02/15 08:51:19;;;;;;;8.35;1.92;;;6.30;4.00;;;;;;5056574;28;20124;-71
2022/02/15 08:53:54;;;;;;;6.75;1.88;;;6.40;1.00;;;;;;5046332;28;20095;-70
2022/02/15 08:56:21;;;;;;;5.80;1.35;;;6.40;1.00;;;;;;5036590;28;20033;-71
2022/02/15 08:58:49;;;;;;;5.78;1.38;;;6.40;1.00;;;;;;5037489;28;20037;-71
2022/02/15 09:01:17;;;;;;;9.38;1.25;;;6.40;1.00;;;;;;5028888;28;20053;-71
2022/02/15 09:03:43;;;;;;;9.40;1.38;;;6.60;1.00;;;;;;5033597;28;20040;-71
2022/02/15 09:06:10;;;;;;;8.85;1.42;;;6.60;1.00;;;;;;5037379;28;20037;-71
2022/02/15 09:08:36;;;;;;;8.45;1.95;;;6.60;1.00;;;;;;5049019;28;20484;-72
2022/02/15 09:11:02;;;;;;;9.40;1.60;;;6.70;1.00;;;;;;5052224;28;20406;-71
2022/02/15 09:13:28;;;;;;;7.70;1.88;;;6.60;1.00;;;;;;5044130;28;20057;-71
2022/02/15 09:15:54;;;;;;;8.45;2.08;;;6.60;1.00;;;;;;5053375;28;20037;-71
2022/02/15 09:18:20;;;;;;;9.52;2.45;;;6.60;1.00;;;;;;5055791;28;20479;-71
2022/02/15 09:20:46;;;;;;;6.13;1.48;;;6.60;1.00;;;;;;5056085;28;20049;-71
2022/02/15 09:23:11;;;;;;;6.72;1.73;;;6.60;1.00;;;;;;5056623;28;20047;-70
2022/02/15 09:25:37;;;;;;;10.18;1.70;;;6.70;1.00;;;;;;5055321;28;20576;-71
2022/02/15 09:28:03;;;;;;;6.10;1.02;;;6.80;1.00;;;;;;5055802;28;20602;-71
2022/02/15 09:30:29;;;;;;;9.00;1.77;;;6.70;1.00;;;;;;5056304;28;20033;-71
2022/02/15 09:32:55;;;;;;;5.00;1.50;;;6.90;1.00;;;;;;5056119;28;20117;-71
2022/02/15 09:35:21;;;;;;;3.80;1.20;;;6.90;1.00;;;;;;5054400;28;20029;-71
2022/02/15 09:37:47;;;;;;;9.93;1.17;;;6.90;1.00;;;;;;5045686;28;20056;-72
2022/02/15 09:40:14;;;;;;;4.60;1.27;;;7.00;1.00;;;;;;5035042;28;20120;-72
2022/02/15 09:42:40;;;;;;;7.38;1.35;;;6.90;1.00;;;;;;5041764;28;20052;-71
2022/02/15 09:45:10;;;;;;;4.45;1.40;;;6.80;1.00;;;;;;5056014;28;20043;-71
2022/02/15 09:47:37;;;;;;;6.23;1.70;;;6.80;1.00;;;;;;5055877;28;20048;-71
2022/02/15 09:50:06;;;;;;;6.28;1.20;;;6.80;1.00;;;;;;5055536;28;20263;-71
2022/02/15 09:52:32;;;;;;;6.97;1.80;;;6.80;1.00;;;;;;5055915;28;20107;-71
2022/02/15 09:54:59;;;;;;;4.68;1.48;;;6.80;1.00;;;;;;5048589;28;20044;-71
2022/02/15 09:57:25;;;;;;;10.48;1.85;;;6.80;1.00;;;;;;5035572;28;20047;-71
2022/02/15 09:59:53;;;;;;;6.75;1.70;;;6.80;1.00;;;;;;5035205;28;20047;-71
2022/02/15 10:02:27;;;;;;;7.43;1.50;;;6.80;1.00;;;;;;5046600;28;20083;-71
2022/02/15 10:04:57;;;;;;;12.88;1.83;;;6.80;1.00;;;;;;5035652;28;20033;-71
2022/02/15 10:07:24;;;;;;;6.38;1.60;;;6.80;1.00;;;;;;5043183;28;20043;-70
2022/02/15 10:09:52;;;;;;;6.90;1.58;;;6.90;1.00;;;;;;5052841;28;20578;-71
2022/02/15 10:12:19;;;;;;;6.10;2.08;;;6.90;1.00;;;;;;5055614;28;20502;-71
2022/02/15 10:14:47;;;;;;;7.10;1.88;;;7.00;1.00;;;;;;5053698;28;20035;-71
2022/02/15 10:17:19;;;;;;;8.00;1.95;;;7.10;1.00;;;;;;5055812;28;20045;-71
2022/02/15 10:19:50;;;;;;;4.82;1.40;;;7.20;1.00;;;;;;5054444;28;20033;-70
2022/02/15 10:22:21;;;;;;;7.72;1.55;;;7.20;1.00;;;;;;5055203;28;20049;-70
2022/02/15 10:24:55;;;;;;;6.97;1.20;;;7.10;1.00;;;;;;5040841;28;20029;-72
2022/02/15 10:27:30;;;;;;;6.13;1.27;;;7.10;1.00;;;;;;5033100;28;20068;-71
2022/02/15 10:29:57;;;;;;;7.13;1.33;;;7.40;1.00;;;;;;5033564;28;20436;-71
2022/02/15 10:32:24;;;;;;;8.68;2.03;;;7.60;1.00;;;;;;5034729;28;20038;-71
2022/02/15 10:34:58;;;;;;;9.63;2.20;;;7.60;1.00;;;;;;5035175;28;20033;-71
2022/02/15 10:37:29;;;;;;;8.23;1.45;;;7.50;1.00;;;;;;5035092;28;20046;-71
2022/02/15 10:39:58;;;;;;;8.00;1.83;;;7.30;1.00;;;;;;5032567;28;20129;-71
2022/02/15 10:42:26;;;;;;;8.55;1.52;;;7.30;1.00;;;;;;5035048;28;20060;-71
2022/02/15 10:44:59;;;;;;;11.25;1.67;;;7.30;1.00;;;;;;5035052;28;20060;-71
2022/02/15 10:47:27;;;;;;;7.05;1.70;;;7.40;1.00;;;;;;5034945;28;20037;-71
2022/02/15 10:50:01;;;;;;;7.90;1.75;;;7.40;1.00;;;;;;5032951;28;20141;-71
2022/02/15 10:52:27;;;;;;;8.25;2.00;;;7.40;1.00;;;;;;5033235;28;20132;-71
2022/02/15 10:54:54;;;;;;;4.32;1.40;;;7.50;1.00;;;;;;5051646;28;20044;-71
2022/02/15 10:57:21;;;;;;;7.40;1.60;;;7.50;1.00;;;;;;5054544;28;20040;-71
2022/02/15 10:59:48;;;;;;;8.13;1.58;;;7.60;1.00;;;;;;5054524;28;20029;-70
2022/02/15 11:02:20;;;;;;;5.68;1.60;;;7.80;1.00;;;;;;5054417;28;20045;-71
2022/02/15 11:04:48;;;;;;;5.55;1.52;;;7.90;1.00;;;;;;5038506;28;20045;-71
2022/02/15 11:07:15;;;;;;;5.40;1.27;;;7.90;1.00;;;;;;5034150;28;20049;-71
2022/02/15 11:09:52;;;;;;;4.38;1.40;;;7.70;1.00;;;;;;5032765;28;20034;-71
2022/02/15 11:12:44;;;;;;;7.53;1.30;;;7.40;1.00;;;;;;5030080;28;20549;-71
2022/02/15 11:15:11;;;;;;;6.55;1.85;;;7.20;1.00;;;;;;5033128;28;20040;-72
2022/02/15 11:17:52;;;;;;;5.75;0.90;;;7.20;1.00;;;;;;5034131;28;20049;-71
2022/02/15 11:20:20;;;;;;;;;;;7.10;1.00;;;;;;5031975;28;20045;-71
2022/02/15 11:22:48;;;;;;;5.05;1.27;;;7.10;1.00;;;;;;5052580;28;19999;-71
2022/02/15 11:25:14;;;;;;;9.35;2.25;;;7.00;1.00;;;;;;5052402;28;20032;-71
2022/02/15 11:27:49;;;;;;;7.20;1.48;;;6.90;12.90;;;;;;5052382;28;20041;-72
2022/02/15 11:30:15;;;;;;;4.68;1.70;;;6.60;15.00;;;;;;5040721;28;20127;-71
2022/02/15 11:32:43;;;;;;;6.95;1.48;;;6.50;87.90;;;;;;5033835;28;20201;-71
2022/02/15 11:35:13;;;;;;;6.15;1.20;;;6.80;1.00;;;;;;5033909;28;20041;-72
2022/02/15 11:37:39;;;;;;;8.75;1.70;;;7.00;1.00;;;;;;5033958;28;20095;-71
2022/02/15 11:40:08;;;;;;;7.10;1.40;;;7.90;1.00;;;;;;5034932;28;20083;-71
2022/02/15 11:42:49;;;;;;;12.48;1.92;;;7.20;1.00;;;;;;5053194;28;20045;-71
2022/02/15 11:45:25;;;;;;;8.40;1.48;;;7.20;1.00;;;;;;5053185;28;20519;-71
2022/02/15 11:47:51;;;;;;;9.05;1.60;;;7.30;1.00;;;;;;5053953;28;20048;-71
2022/02/15 11:50:17;;;;;;;9.73;1.52;;;7.40;1.00;;;;;;5050199;28;20511;-71
2022/02/15 11:52:45;;;;;;;6.68;1.58;;;7.40;1.00;;;;;;5038257;28;20037;-71
2022/02/15 11:55:15;;;;;;;6.90;1.88;;;7.40;1.00;;;;;;5053473;28;20492;-71
2022/02/15 11:57:42;;;;;;;8.00;1.90;;;7.40;1.00;;;;;;5052266;28;20396;-71
2022/02/15 12:00:10;;;;;;;6.28;1.38;;;7.40;1.00;;;;;;5051973;28;20037;-71
2022/02/15 12:02:36;;;;;;;6.93;1.40;;;7.50;1.00;;;;;;5033451;28;20534;-71
2022/02/15 12:05:05;;;;;;;11.32;1.77;;;7.40;1.00;;;;;;5036491;28;20117;-71
2022/02/15 12:07:32;;;;;;;6.03;1.27;;;7.50;1.00;;;;;;5036348;28;20037;-70
2022/02/15 12:10:11;;;;;;;8.52;1.90;;;7.50;1.00;;;;;;5036295;28;20049;-70
2022/02/15 12:12:41;;;;;;;9.70;2.13;;;7.60;1.00;;;;;;5033887;28;20060;-71
2022/02/15 12:15:09;;;;;;;9.45;1.90;;;7.50;1.00;;;;;;5039367;28;20044;-71
2022/02/15 12:17:53;;;;;;;12.75;1.50;;;7.60;1.00;;;;;;5054601;28;20128;-70
2022/02/15 12:20:20;;;;;;;8.95;1.65;;;7.60;1.00;;;;;;5058165;28;20120;-71
2022/02/15 12:22:49;;;;;;;7.05;1.80;;;7.50;1.00;;;;;;5057500;28;20037;-70
2022/02/15 12:25:15;;;;;;;9.35;1.65;;;7.50;1.00;;;;;;5057838;28;20071;-71
2022/02/15 12:27:42;;;;;;;14.02;2.25;;;7.40;1.00;;;;;;5040278;28;20116;-71
2022/02/15 12:30:12;;;;;;;10.13;2.08;;;7.60;1.00;;;;;;5037693;28;20038;-70
2022/02/15 12:32:40;;;;;;;12.23;2.15;;;7.90;1.00;;;;;;5037894;28;20033;-70
2022/02/15 12:35:08;;;;;;;8.50;1.48;;;8.30;1.00;;;;;;5037555;28;20095;-70
2022/02/15 12:37:35;;;;;;;9.77;2.13;;;8.30;1.00;;;;;;5038036;28;20037;-70
2022/02/15 12:40:03;;;;;;;9.77;1.67;;;8.20;1.00;;;;;;5038031;28;20037;-71
2022/02/15 12:42:29;;;;;;;10.80;1.80;;;8.10;1.00;;;;;;5037809;28;20044;-71
2022/02/15 12:44:58;;;;;;;8.70;1.73;;;8.30;1.00;;;;;;5037488;28;20052;-71
2022/02/15 12:47:28;;;;;;;11.13;2.17;;;8.60;1.00;;;;;;5037350;28;20064;-70
2022/02/15 12:49:55;;;;;;;8.73;1.92;;;8.50;1.00;;;;;;5047625;28;20091;-71
2022/02/15 12:52:22;;;;;;;9.27;2.15;;;8.20;1.00;;;;;;5056995;28;20048;-71
2022/02/15 12:54:57;;;;;;;10.57;2.08;;;8.10;1.00;;;;;;5056989;28;20480;-71
2022/02/15 12:57:24;;;;;;;8.35;1.90;;;8.00;1.00;;;;;;5054946;28;20064;-71
2022/02/15 12:59:58;;;;;;;8.23;2.00;;;7.90;1.00;;;;;;5050514;28;20044;-71
2022/02/15 13:02:29;;;;;;;8.25;2.05;;;7.90;1.00;;;;;;5036129;28;20038;-71
2022/02/15 13:04:59;;;;;;;7.57;1.95;;;8.00;1.00;;;;;;5036627;28;20038;-70
2022/02/15 13:07:26;;;;;;;12.68;2.15;;;7.90;1.00;;;;;;5037271;28;20052;-70
2022/02/15 13:09:54;;;;;;;8.63;1.90;;;7.80;1.00;;;;;;5036435;28;20041;-70